Irene, Illinois
Current Conditions -  °F | °C
As of 3:54 PM on Tuesday 21 Oct 2014 (Local Time) from KRFD Reporting Station
Broken Clouds Broken Clouds  
Wind Chill: 53°   Ceiling: 3600
Heat Index: 53°   Visibility: 10mi
Dew Point: 37°   Wind: 13mph
Humidity: 55%   Direction: 30°NNE
Pressure: 30.22"   Gusts: NA
Location:  42.1893°N, 88.9437°W
Report Text: KRFD 212054Z 03011KT 10SM BKN036 12/03 A3022 RMK AO2 SLP236 T01170028 56001
Loading
Personal Weather Stations






























Interactive Weather Map
Tropical Storm Tracking
New forecast layout! Learn more

10-Day Weather Forecast

Advertisements
Track Severe Weather on mobile